sensor_id;sensor_type;location;lat;lon;timestamp;P1;durP1;ratioP1;P2;durP2;ratioP2
29402;SDS011;16382;59.942;30.472;2022-12-29T00:01:41;4.68;;;2.25;;
29402;SDS011;16382;59.942;30.472;2022-12-29T00:04:09;5.28;;;2.25;;
29402;SDS011;16382;59.942;30.472;2022-12-29T00:06:40;6.32;;;2.35;;
29402;SDS011;16382;59.942;30.472;2022-12-29T00:09:08;4.03;;;2.47;;
29402;SDS011;16382;59.942;30.472;2022-12-29T00:11:38;7.40;;;3.33;;
29402;SDS011;16382;59.942;30.472;2022-12-29T00:14:07;17.00;;;3.08;;
29402;SDS011;16382;59.942;30.472;2022-12-29T00:16:53;6.32;;;2.88;;
29402;SDS011;16382;59.942;30.472;2022-12-29T00:19:21;5.15;;;1.50;;
29402;SDS011;16382;59.942;30.472;2022-12-29T00:22:06;4.82;;;1.65;;
29402;SDS011;16382;59.942;30.472;2022-12-29T00:24:53;8.40;;;1.38;;
29402;SDS011;16382;59.942;30.472;2022-12-29T00:27:39;3.70;;;1.08;;
29402;SDS011;16382;59.942;30.472;2022-12-29T00:30:24;3.47;;;1.15;;
29402;SDS011;16382;59.942;30.472;2022-12-29T00:33:10;7.45;;;1.40;;
29402;SDS011;16382;59.942;30.472;2022-12-29T00:35:56;5.60;;;1.15;;
29402;SDS011;16382;59.942;30.472;2022-12-29T00:38:28;5.40;;;1.88;;
29402;SDS011;16382;59.942;30.472;2022-12-29T00:41:15;3.45;;;1.52;;
29402;SDS011;16382;59.942;30.472;2022-12-29T00:44:02;5.75;;;1.55;;
29402;SDS011;16382;59.942;30.472;2022-12-29T00:46:32;3.28;;;1.40;;
29402;SDS011;16382;59.942;30.472;2022-12-29T00:49:01;7.05;;;1.35;;
29402;SDS011;16382;59.942;30.472;2022-12-29T00:51:47;11.30;;;2.90;;
29402;SDS011;16382;59.942;30.472;2022-12-29T00:54:15;10.60;;;1.50;;
29402;SDS011;16382;59.942;30.472;2022-12-29T00:56:45;7.45;;;2.17;;
29402;SDS011;16382;59.942;30.472;2022-12-29T00:59:17;8.23;;;1.98;;
29402;SDS011;16382;59.942;30.472;2022-12-29T01:01:46;3.58;;;1.70;;
29402;SDS011;16382;59.942;30.472;2022-12-29T01:04:14;5.03;;;1.75;;
29402;SDS011;16382;59.942;30.472;2022-12-29T01:06:43;5.72;;;1.40;;
29402;SDS011;16382;59.942;30.472;2022-12-29T01:09:11;1.92;;;1.20;;
29402;SDS011;16382;59.942;30.472;2022-12-29T01:11:56;5.22;;;1.73;;
29402;SDS011;16382;59.942;30.472;2022-12-29T01:14:27;2.67;;;1.38;;
29402;SDS011;16382;59.942;30.472;2022-12-29T01:16:56;2.60;;;1.67;;
29402;SDS011;16382;59.942;30.472;2022-12-29T01:19:24;3.15;;;2.40;;
29402;SDS011;16382;59.942;30.472;2022-12-29T01:21:55;3.65;;;1.30;;
29402;SDS011;16382;59.942;30.472;2022-12-29T01:24:22;7.93;;;1.55;;
29402;SDS011;16382;59.942;30.472;2022-12-29T01:26:51;5.40;;;1.85;;
29402;SDS011;16382;59.942;30.472;2022-12-29T01:29:19;5.47;;;1.88;;
29402;SDS011;16382;59.942;30.472;2022-12-29T01:31:48;4.90;;;1.70;;
29402;SDS011;16382;59.942;30.472;2022-12-29T01:34:16;3.72;;;1.60;;
29402;SDS011;16382;59.942;30.472;2022-12-29T01:36:44;2.45;;;1.30;;
29402;SDS011;16382;59.942;30.472;2022-12-29T01:39:12;5.85;;;1.80;;
29402;SDS011;16382;59.942;30.472;2022-12-29T01:41:39;5.78;;;1.95;;
29402;SDS011;16382;59.942;30.472;2022-12-29T01:47:20;5.22;;;1.30;;
29402;SDS011;16382;59.942;30.472;2022-12-29T01:49:56;3.38;;;1.15;;
29402;SDS011;16382;59.942;30.472;2022-12-29T01:52:29;4.95;;;1.15;;
29402;SDS011;16382;59.942;30.472;2022-12-29T01:55:00;3.05;;;1.20;;
29402;SDS011;16382;59.942;30.472;2022-12-29T01:57:31;7.13;;;1.40;;
29402;SDS011;16382;59.942;30.472;2022-12-29T02:00:03;2.75;;;1.10;;
29402;SDS011;16382;59.942;30.472;2022-12-29T02:02:45;7.88;;;1.50;;
29402;SDS011;16382;59.942;30.472;2022-12-29T02:05:23;3.97;;;1.33;;
29402;SDS011;16382;59.942;30.472;2022-12-29T02:07:58;3.83;;;1.35;;
29402;SDS011;16382;59.942;30.472;2022-12-29T02:10:28;11.63;;;2.05;;
29402;SDS011;16382;59.942;30.472;2022-12-29T02:12:59;6.93;;;1.90;;
29402;SDS011;16382;59.942;30.472;2022-12-29T02:15:29;5.22;;;1.77;;
29402;SDS011;16382;59.942;30.472;2022-12-29T02:18:11;5.82;;;2.15;;
29402;SDS011;16382;59.942;30.472;2022-12-29T02:24:30;3.70;;;1.52;;
29402;SDS011;16382;59.942;30.472;2022-12-29T02:27:31;4.40;;;1.42;;
29402;SDS011;16382;59.942;30.472;2022-12-29T02:30:16;7.07;;;2.20;;
29402;SDS011;16382;59.942;30.472;2022-12-29T02:33:27;1.88;;;1.40;;
29402;SDS011;16382;59.942;30.472;2022-12-29T02:36:12;5.75;;;1.48;;
29402;SDS011;16382;59.942;30.472;2022-12-29T02:38:51;5.05;;;1.40;;
29402;SDS011;16382;59.942;30.472;2022-12-29T02:41:31;5.53;;;1.55;;
29402;SDS011;16382;59.942;30.472;2022-12-29T02:44:02;5.20;;;1.55;;
29402;SDS011;16382;59.942;30.472;2022-12-29T02:46:43;4.05;;;1.80;;
29402;SDS011;16382;59.942;30.472;2022-12-29T02:49:18;2.60;;;1.60;;
29402;SDS011;16382;59.942;30.472;2022-12-29T02:51:52;5.93;;;1.30;;
29402;SDS011;16382;59.942;30.472;2022-12-29T02:54:27;5.32;;;2.30;;
29402;SDS011;16382;59.942;30.472;2022-12-29T02:57:11;3.20;;;1.67;;
29402;SDS011;16382;59.942;30.472;2022-12-29T02:59:42;5.15;;;1.52;;
29402;SDS011;16382;59.942;30.472;2022-12-29T03:02:17;3.45;;;1.20;;
29402;SDS011;16382;59.942;30.472;2022-12-29T03:05:13;2.63;;;1.15;;
29402;SDS011;16382;59.942;30.472;2022-12-29T03:07:52;3.42;;;1.50;;
29402;SDS011;16382;59.942;30.472;2022-12-29T03:10:30;1.40;;;1.10;;
29402;SDS011;16382;59.942;30.472;2022-12-29T03:13:12;3.45;;;1.45;;
29402;SDS011;16382;59.942;30.472;2022-12-29T03:16:07;3.30;;;1.52;;
29402;SDS011;16382;59.942;30.472;2022-12-29T03:18:46;2.47;;;1.40;;
29402;SDS011;16382;59.942;30.472;2022-12-29T03:21:22;5.18;;;1.17;;
29402;SDS011;16382;59.942;30.472;2022-12-29T03:24:17;3.97;;;1.20;;
29402;SDS011;16382;59.942;30.472;2022-12-29T03:26:49;4.13;;;1.20;;
29402;SDS011;16382;59.942;30.472;2022-12-29T03:29:20;5.68;;;1.17;;
29402;SDS011;16382;59.942;30.472;2022-12-29T03:31:48;7.38;;;1.50;;
29402;SDS011;16382;59.942;30.472;2022-12-29T03:34:20;3.55;;;1.10;;
29402;SDS011;16382;59.942;30.472;2022-12-29T03:36:50;3.60;;;1.40;;
29402;SDS011;16382;59.942;30.472;2022-12-29T03:41:50;1.85;;;1.52;;
29402;SDS011;16382;59.942;30.472;2022-12-29T03:44:31;5.28;;;1.55;;
29402;SDS011;16382;59.942;30.472;2022-12-29T03:47:01;4.10;;;1.75;;
29402;SDS011;16382;59.942;30.472;2022-12-29T03:49:30;6.00;;;1.73;;
29402;SDS011;16382;59.942;30.472;2022-12-29T03:51:58;2.70;;;1.55;;
29402;SDS011;16382;59.942;30.472;2022-12-29T03:54:27;7.90;;;2.22;;
29402;SDS011;16382;59.942;30.472;2022-12-29T03:56:56;6.00;;;1.70;;
29402;SDS011;16382;59.942;30.472;2022-12-29T03:59:35;3.08;;;1.58;;
29402;SDS011;16382;59.942;30.472;2022-12-29T04:02:03;4.75;;;2.35;;
29402;SDS011;16382;59.942;30.472;2022-12-29T04:04:32;6.05;;;1.60;;
29402;SDS011;16382;59.942;30.472;2022-12-29T04:06:59;5.75;;;1.95;;
29402;SDS011;16382;59.942;30.472;2022-12-29T04:09:27;5.95;;;1.60;;
29402;SDS011;16382;59.942;30.472;2022-12-29T04:11:56;6.28;;;1.75;;
29402;SDS011;16382;59.942;30.472;2022-12-29T04:14:24;4.60;;;1.98;;
29402;SDS011;16382;59.942;30.472;2022-12-29T04:16:52;6.63;;;2.22;;
29402;SDS011;16382;59.942;30.472;2022-12-29T04:19:20;7.22;;;2.95;;
29402;SDS011;16382;59.942;30.472;2022-12-29T04:21:50;6.03;;;1.75;;
29402;SDS011;16382;59.942;30.472;2022-12-29T04:24:17;9.90;;;2.20;;
29402;SDS011;16382;59.942;30.472;2022-12-29T04:26:47;6.75;;;2.03;;
29402;SDS011;16382;59.942;30.472;2022-12-29T04:29:42;2.78;;;1.52;;
29402;SDS011;16382;59.942;30.472;2022-12-29T04:32:29;4.15;;;1.90;;
29402;SDS011;16382;59.942;30.472;2022-12-29T04:34:57;3.63;;;1.58;;
29402;SDS011;16382;59.942;30.472;2022-12-29T04:37:26;11.30;;;1.60;;
29402;SDS011;16382;59.942;30.472;2022-12-29T04:39:54;10.13;;;2.15;;
29402;SDS011;16382;59.942;30.472;2022-12-29T04:42:21;6.32;;;1.60;;
29402;SDS011;16382;59.942;30.472;2022-12-29T04:44:50;12.15;;;2.40;;
29402;SDS011;16382;59.942;30.472;2022-12-29T04:47:32;13.90;;;1.83;;
29402;SDS011;16382;59.942;30.472;2022-12-29T04:50:26;4.95;;;1.80;;
29402;SDS011;16382;59.942;30.472;2022-12-29T04:53:05;9.50;;;1.95;;
29402;SDS011;16382;59.942;30.472;2022-12-29T04:55:35;8.18;;;1.83;;
29402;SDS011;16382;59.942;30.472;2022-12-29T04:58:02;5.38;;;2.15;;
29402;SDS011;16382;59.942;30.472;2022-12-29T05:00:32;5.13;;;2.17;;
29402;SDS011;16382;59.942;30.472;2022-12-29T05:03:00;6.35;;;2.10;;
29402;SDS011;16382;59.942;30.472;2022-12-29T05:05:28;4.25;;;2.00;;
29402;SDS011;16382;59.942;30.472;2022-12-29T05:07:57;5.70;;;1.90;;
29402;SDS011;16382;59.942;30.472;2022-12-29T05:10:27;6.97;;;1.95;;
29402;SDS011;16382;59.942;30.472;2022-12-29T05:12:59;6.18;;;2.40;;
29402;SDS011;16382;59.942;30.472;2022-12-29T05:15:27;6.82;;;2.10;;
29402;SDS011;16382;59.942;30.472;2022-12-29T05:20:44;9.43;;;2.35;;
29402;SDS011;16382;59.942;30.472;2022-12-29T05:23:13;6.00;;;2.40;;
29402;SDS011;16382;59.942;30.472;2022-12-29T05:25:44;6.68;;;2.20;;
29402;SDS011;16382;59.942;30.472;2022-12-29T05:28:29;8.82;;;2.75;;
29402;SDS011;16382;59.942;30.472;2022-12-29T05:31:03;8.57;;;3.10;;
29402;SDS011;16382;59.942;30.472;2022-12-29T05:33:31;10.77;;;3.30;;
29402;SDS011;16382;59.942;30.472;2022-12-29T05:36:03;8.93;;;3.28;;
29402;SDS011;16382;59.942;30.472;2022-12-29T05:38:31;11.70;;;3.25;;
29402;SDS011;16382;59.942;30.472;2022-12-29T05:41:00;9.27;;;3.63;;
29402;SDS011;16382;59.942;30.472;2022-12-29T05:43:46;9.20;;;2.92;;
29402;SDS011;16382;59.942;30.472;2022-12-29T05:46:29;7.03;;;3.15;;
29402;SDS011;16382;59.942;30.472;2022-12-29T05:49:06;10.50;;;3.92;;
29402;SDS011;16382;59.942;30.472;2022-12-29T05:55:11;10.82;;;3.75;;
29402;SDS011;16382;59.942;30.472;2022-12-29T05:57:42;8.15;;;3.45;;
29402;SDS011;16382;59.942;30.472;2022-12-29T06:00:13;10.13;;;3.38;;
29402;SDS011;16382;59.942;30.472;2022-12-29T06:02:43;10.68;;;3.08;;
29402;SDS011;16382;59.942;30.472;2022-12-29T06:05:11;6.05;;;2.53;;
29402;SDS011;16382;59.942;30.472;2022-12-29T06:07:39;10.18;;;2.90;;
29402;SDS011;16382;59.942;30.472;2022-12-29T06:10:07;7.68;;;3.28;;
29402;SDS011;16382;59.942;30.472;2022-12-29T06:12:48;10.07;;;3.05;;
29402;SDS011;16382;59.942;30.472;2022-12-29T06:15:16;6.97;;;2.80;;
29402;SDS011;16382;59.942;30.472;2022-12-29T06:17:46;5.05;;;2.60;;
29402;SDS011;16382;59.942;30.472;2022-12-29T06:20:14;13.70;;;3.67;;
29402;SDS011;16382;59.942;30.472;2022-12-29T06:22:42;8.38;;;3.13;;
29402;SDS011;16382;59.942;30.472;2022-12-29T06:25:12;8.27;;;3.17;;
29402;SDS011;16382;59.942;30.472;2022-12-29T06:27:41;6.07;;;2.75;;
29402;SDS011;16382;59.942;30.472;2022-12-29T06:30:11;9.13;;;3.47;;
29402;SDS011;16382;59.942;30.472;2022-12-29T06:32:40;9.73;;;2.97;;
29402;SDS011;16382;59.942;30.472;2022-12-29T06:35:10;4.90;;;2.20;;
29402;SDS011;16382;59.942;30.472;2022-12-29T06:37:45;6.32;;;2.47;;
29402;SDS011;16382;59.942;30.472;2022-12-29T06:40:12;5.68;;;2.72;;
29402;SDS011;16382;59.942;30.472;2022-12-29T06:42:59;9.15;;;2.20;;
29402;SDS011;16382;59.942;30.472;2022-12-29T06:45:47;8.98;;;2.90;;
29402;SDS011;16382;59.942;30.472;2022-12-29T06:48:14;7.82;;;2.70;;
29402;SDS011;16382;59.942;30.472;2022-12-29T06:50:42;6.78;;;3.10;;
29402;SDS011;16382;59.942;30.472;2022-12-29T06:53:09;13.13;;;3.05;;
29402;SDS011;16382;59.942;30.472;2022-12-29T06:55:37;6.15;;;2.88;;
29402;SDS011;16382;59.942;30.472;2022-12-29T06:58:05;6.78;;;3.13;;
29402;SDS011;16382;59.942;30.472;2022-12-29T07:00:32;4.30;;;2.20;;
29402;SDS011;16382;59.942;30.472;2022-12-29T07:03:01;7.75;;;2.63;;
29402;SDS011;16382;59.942;30.472;2022-12-29T07:05:29;8.95;;;2.80;;
29402;SDS011;16382;59.942;30.472;2022-12-29T07:07:58;7.07;;;2.58;;
29402;SDS011;16382;59.942;30.472;2022-12-29T07:10:25;5.03;;;2.67;;
29402;SDS011;16382;59.942;30.472;2022-12-29T07:12:53;14.90;;;3.33;;
29402;SDS011;16382;59.942;30.472;2022-12-29T07:15:21;7.50;;;2.55;;
29402;SDS011;16382;59.942;30.472;2022-12-29T07:17:49;7.93;;;2.20;;
29402;SDS011;16382;59.942;30.472;2022-12-29T07:20:18;9.82;;;2.80;;
29402;SDS011;16382;59.942;30.472;2022-12-29T07:22:46;6.55;;;2.40;;
29402;SDS011;16382;59.942;30.472;2022-12-29T07:25:13;4.43;;;2.55;;
29402;SDS011;16382;59.942;30.472;2022-12-29T07:27:41;11.50;;;3.38;;
29402;SDS011;16382;59.942;30.472;2022-12-29T07:30:09;5.75;;;3.38;;
29402;SDS011;16382;59.942;30.472;2022-12-29T07:32:38;11.38;;;3.90;;
29402;SDS011;16382;59.942;30.472;2022-12-29T07:35:07;8.43;;;3.55;;
29402;SDS011;16382;59.942;30.472;2022-12-29T07:37:37;9.57;;;3.92;;
29402;SDS011;16382;59.942;30.472;2022-12-29T07:40:05;12.65;;;3.30;;
29402;SDS011;16382;59.942;30.472;2022-12-29T07:42:37;11.10;;;3.50;;
29402;SDS011;16382;59.942;30.472;2022-12-29T07:45:08;7.95;;;3.17;;
29402;SDS011;16382;59.942;30.472;2022-12-29T07:48:12;9.23;;;3.08;;
29402;SDS011;16382;59.942;30.472;2022-12-29T07:50:40;6.50;;;3.40;;
29402;SDS011;16382;59.942;30.472;2022-12-29T07:53:09;15.50;;;2.67;;
29402;SDS011;16382;59.942;30.472;2022-12-29T07:55:37;9.90;;;3.75;;
29402;SDS011;16382;59.942;30.472;2022-12-29T07:58:10;9.95;;;3.10;;
29402;SDS011;16382;59.942;30.472;2022-12-29T08:00:38;18.48;;;3.95;;
29402;SDS011;16382;59.942;30.472;2022-12-29T08:03:06;7.80;;;2.80;;
29402;SDS011;16382;59.942;30.472;2022-12-29T08:05:34;15.45;;;5.20;;
29402;SDS011;16382;59.942;30.472;2022-12-29T08:08:02;7.43;;;3.05;;
29402;SDS011;16382;59.942;30.472;2022-12-29T08:10:31;8.65;;;3.35;;
29402;SDS011;16382;59.942;30.472;2022-12-29T08:12:59;5.20;;;2.95;;
29402;SDS011;16382;59.942;30.472;2022-12-29T08:15:27;6.85;;;3.17;;
29402;SDS011;16382;59.942;30.472;2022-12-29T08:17:55;13.75;;;3.25;;
29402;SDS011;16382;59.942;30.472;2022-12-29T08:20:23;8.00;;;3.47;;
29402;SDS011;16382;59.942;30.472;2022-12-29T08:22:50;7.68;;;3.58;;
29402;SDS011;16382;59.942;30.472;2022-12-29T08:25:18;8.07;;;3.13;;
29402;SDS011;16382;59.942;30.472;2022-12-29T08:27:48;9.57;;;3.50;;
29402;SDS011;16382;59.942;30.472;2022-12-29T08:30:15;7.75;;;3.15;;
29402;SDS011;16382;59.942;30.472;2022-12-29T08:32:43;7.25;;;2.80;;
29402;SDS011;16382;59.942;30.472;2022-12-29T08:35:10;9.95;;;2.92;;
29402;SDS011;16382;59.942;30.472;2022-12-29T08:37:38;8.98;;;2.92;;
29402;SDS011;16382;59.942;30.472;2022-12-29T08:40:06;12.40;;;3.15;;
29402;SDS011;16382;59.942;30.472;2022-12-29T08:42:35;8.40;;;3.25;;
29402;SDS011;16382;59.942;30.472;2022-12-29T08:45:05;7.30;;;3.53;;
29402;SDS011;16382;59.942;30.472;2022-12-29T08:47:34;12.05;;;4.00;;
29402;SDS011;16382;59.942;30.472;2022-12-29T08:50:02;10.68;;;3.67;;
29402;SDS011;16382;59.942;30.472;2022-12-29T08:52:30;9.95;;;4.10;;
29402;SDS011;16382;59.942;30.472;2022-12-29T08:54:58;10.98;;;5.78;;
29402;SDS011;16382;59.942;30.472;2022-12-29T08:57:26;15.30;;;5.00;;
29402;SDS011;16382;59.942;30.472;2022-12-29T09:00:16;8.55;;;3.88;;
29402;SDS011;16382;59.942;30.472;2022-12-29T09:02:44;10.25;;;4.50;;
29402;SDS011;16382;59.942;30.472;2022-12-29T09:05:11;10.82;;;4.97;;
29402;SDS011;16382;59.942;30.472;2022-12-29T09:07:39;11.55;;;4.93;;
29402;SDS011;16382;59.942;30.472;2022-12-29T09:10:07;13.77;;;5.03;;
29402;SDS011;16382;59.942;30.472;2022-12-29T09:12:35;13.20;;;5.10;;
29402;SDS011;16382;59.942;30.472;2022-12-29T09:15:03;13.60;;;5.10;;
29402;SDS011;16382;59.942;30.472;2022-12-29T09:17:35;9.88;;;4.60;;
29402;SDS011;16382;59.942;30.472;2022-12-29T09:20:09;12.15;;;5.05;;
29402;SDS011;16382;59.942;30.472;2022-12-29T09:22:38;9.20;;;5.57;;
29402;SDS011;16382;59.942;30.472;2022-12-29T09:25:06;22.02;;;6.25;;
29402;SDS011;16382;59.942;30.472;2022-12-29T09:27:34;11.48;;;5.88;;
29402;SDS011;16382;59.942;30.472;2022-12-29T09:30:02;17.63;;;6.07;;
29402;SDS011;16382;59.942;30.472;2022-12-29T09:32:32;13.95;;;5.50;;
29402;SDS011;16382;59.942;30.472;2022-12-29T09:35:01;13.05;;;5.85;;
29402;SDS011;16382;59.942;30.472;2022-12-29T09:37:30;12.35;;;6.30;;
29402;SDS011;16382;59.942;30.472;2022-12-29T09:39:57;10.30;;;5.28;;
29402;SDS011;16382;59.942;30.472;2022-12-29T09:42:25;11.38;;;5.72;;
29402;SDS011;16382;59.942;30.472;2022-12-29T09:45:00;10.82;;;5.88;;
29402;SDS011;16382;59.942;30.472;2022-12-29T09:47:39;13.10;;;6.22;;
29402;SDS011;16382;59.942;30.472;2022-12-29T09:50:20;13.30;;;6.18;;
29402;SDS011;16382;59.942;30.472;2022-12-29T09:52:52;13.13;;;6.57;;
29402;SDS011;16382;59.942;30.472;2022-12-29T09:55:30;13.55;;;7.20;;
29402;SDS011;16382;59.942;30.472;2022-12-29T09:58:04;15.20;;;7.45;;
29402;SDS011;16382;59.942;30.472;2022-12-29T10:00:43;22.33;;;8.57;;
29402;SDS011;16382;59.942;30.472;2022-12-29T10:03:22;15.70;;;7.85;;
29402;SDS011;16382;59.942;30.472;2022-12-29T10:05:56;16.85;;;8.55;;
29402;SDS011;16382;59.942;30.472;2022-12-29T10:08:34;15.80;;;8.90;;
29402;SDS011;16382;59.942;30.472;2022-12-29T10:11:12;19.38;;;9.10;;
29402;SDS011;16382;59.942;30.472;2022-12-29T10:14:00;14.73;;;8.77;;
29402;SDS011;16382;59.942;30.472;2022-12-29T10:16:46;21.95;;;8.73;;
29402;SDS011;16382;59.942;30.472;2022-12-29T10:22:28;17.02;;;9.23;;
29402;SDS011;16382;59.942;30.472;2022-12-29T10:25:11;18.92;;;10.23;;
29402;SDS011;16382;59.942;30.472;2022-12-29T10:27:46;27.35;;;9.93;;
29402;SDS011;16382;59.942;30.472;2022-12-29T10:30:16;25.83;;;10.18;;
29402;SDS011;16382;59.942;30.472;2022-12-29T10:32:45;20.38;;;10.15;;
29402;SDS011;16382;59.942;30.472;2022-12-29T10:35:20;26.15;;;10.23;;
29402;SDS011;16382;59.942;30.472;2022-12-29T10:37:51;17.65;;;9.10;;
29402;SDS011;16382;59.942;30.472;2022-12-29T10:40:27;22.10;;;9.40;;
29402;SDS011;16382;59.942;30.472;2022-12-29T10:43:03;15.38;;;8.45;;
29402;SDS011;16382;59.942;30.472;2022-12-29T10:45:48;19.63;;;8.60;;
29402;SDS011;16382;59.942;30.472;2022-12-29T10:48:24;20.05;;;8.70;;
29402;SDS011;16382;59.942;30.472;2022-12-29T10:50:57;18.25;;;8.40;;
29402;SDS011;16382;59.942;30.472;2022-12-29T10:53:30;15.90;;;9.60;;
29402;SDS011;16382;59.942;30.472;2022-12-29T10:56:05;17.48;;;8.82;;
29402;SDS011;16382;59.942;30.472;2022-12-29T10:58:44;19.33;;;9.75;;
29402;SDS011;16382;59.942;30.472;2022-12-29T11:01:15;26.75;;;10.65;;
29402;SDS011;16382;59.942;30.472;2022-12-29T11:03:53;14.60;;;8.35;;
29402;SDS011;16382;59.942;30.472;2022-12-29T11:06:31;15.80;;;8.88;;
29402;SDS011;16382;59.942;30.472;2022-12-29T11:09:02;17.73;;;8.50;;
29402;SDS011;16382;59.942;30.472;2022-12-29T11:11:42;20.52;;;8.85;;
29402;SDS011;16382;59.942;30.472;2022-12-29T11:14:14;17.13;;;8.50;;
29402;SDS011;16382;59.942;30.472;2022-12-29T11:16:56;17.15;;;8.90;;
29402;SDS011;16382;59.942;30.472;2022-12-29T11:19:25;18.65;;;8.10;;
29402;SDS011;16382;59.942;30.472;2022-12-29T11:21:57;18.25;;;8.70;;
29402;SDS011;16382;59.942;30.472;2022-12-29T11:24:45;18.48;;;8.32;;
29402;SDS011;16382;59.942;30.472;2022-12-29T11:27:19;13.43;;;7.43;;
29402;SDS011;16382;59.942;30.472;2022-12-29T11:29:51;17.73;;;8.95;;
29402;SDS011;16382;59.942;30.472;2022-12-29T11:32:21;14.10;;;7.97;;
29402;SDS011;16382;59.942;30.472;2022-12-29T11:34:52;14.93;;;7.72;;
29402;SDS011;16382;59.942;30.472;2022-12-29T11:37:24;12.75;;;7.05;;
29402;SDS011;16382;59.942;30.472;2022-12-29T11:40:01;18.35;;;7.72;;
29402;SDS011;16382;59.942;30.472;2022-12-29T11:42:35;15.30;;;7.35;;
29402;SDS011;16382;59.942;30.472;2022-12-29T11:45:06;12.63;;;7.15;;
29402;SDS011;16382;59.942;30.472;2022-12-29T11:47:43;12.70;;;6.97;;
29402;SDS011;16382;59.942;30.472;2022-12-29T11:50:17;12.02;;;6.72;;
29402;SDS011;16382;59.942;30.472;2022-12-29T11:52:58;12.45;;;6.70;;
29402;SDS011;16382;59.942;30.472;2022-12-29T11:55:33;10.45;;;6.53;;
29402;SDS011;16382;59.942;30.472;2022-12-29T11:58:02;10.57;;;6.10;;
29402;SDS011;16382;59.942;30.472;2022-12-29T12:00:32;11.98;;;5.65;;
29402;SDS011;16382;59.942;30.472;2022-12-29T12:03:07;11.63;;;5.95;;
29402;SDS011;16382;59.942;30.472;2022-12-29T12:05:44;10.57;;;5.47;;
29402;SDS011;16382;59.942;30.472;2022-12-29T12:08:27;8.75;;;5.28;;
29402;SDS011;16382;59.942;30.472;2022-12-29T12:11:04;6.22;;;4.47;;
29402;SDS011;16382;59.942;30.472;2022-12-29T12:13:39;10.20;;;5.43;;
29402;SDS011;16382;59.942;30.472;2022-12-29T12:16:18;12.35;;;4.93;;
29402;SDS011;16382;59.942;30.472;2022-12-29T12:18:55;11.20;;;5.30;;
29402;SDS011;16382;59.942;30.472;2022-12-29T12:21:31;10.27;;;5.88;;
29402;SDS011;16382;59.942;30.472;2022-12-29T12:24:23;9.73;;;5.47;;
29402;SDS011;16382;59.942;30.472;2022-12-29T12:27:08;10.85;;;6.30;;
29402;SDS011;16382;59.942;30.472;2022-12-29T12:29:45;11.70;;;5.60;;
29402;SDS011;16382;59.942;30.472;2022-12-29T12:32:20;11.07;;;4.97;;
29402;SDS011;16382;59.942;30.472;2022-12-29T12:34:54;11.55;;;7.20;;
29402;SDS011;16382;59.942;30.472;2022-12-29T12:40:29;8.23;;;4.65;;
29402;SDS011;16382;59.942;30.472;2022-12-29T12:43:28;9.35;;;4.22;;
29402;SDS011;16382;59.942;30.472;2022-12-29T12:49:35;10.60;;;4.78;;
29402;SDS011;16382;59.942;30.472;2022-12-29T12:52:47;7.50;;;4.30;;
29402;SDS011;16382;59.942;30.472;2022-12-29T12:55:44;6.90;;;4.60;;
29402;SDS011;16382;59.942;30.472;2022-12-29T12:58:40;7.45;;;4.25;;
29402;SDS011;16382;59.942;30.472;2022-12-29T13:01:23;8.27;;;4.82;;
29402;SDS011;16382;59.942;30.472;2022-12-29T13:04:12;12.07;;;4.97;;
29402;SDS011;16382;59.942;30.472;2022-12-29T13:07:09;10.35;;;4.95;;
29402;SDS011;16382;59.942;30.472;2022-12-29T13:09:53;8.37;;;3.90;;
29402;SDS011;16382;59.942;30.472;2022-12-29T13:12:49;11.02;;;4.53;;
29402;SDS011;16382;59.942;30.472;2022-12-29T13:15:30;6.57;;;3.65;;
29402;SDS011;16382;59.942;30.472;2022-12-29T13:18:12;8.40;;;4.18;;
29402;SDS011;16382;59.942;30.472;2022-12-29T13:20:52;8.25;;;3.92;;
29402;SDS011;16382;59.942;30.472;2022-12-29T13:23:32;9.20;;;4.10;;
29402;SDS011;16382;59.942;30.472;2022-12-29T13:26:08;6.55;;;4.35;;
29402;SDS011;16382;59.942;30.472;2022-12-29T13:28:47;8.95;;;3.95;;
29402;SDS011;16382;59.942;30.472;2022-12-29T13:31:24;4.80;;;2.85;;
29402;SDS011;16382;59.942;30.472;2022-12-29T13:34:03;6.90;;;3.53;;
29402;SDS011;16382;59.942;30.472;2022-12-29T13:36:42;7.07;;;4.13;;
29402;SDS011;16382;59.942;30.472;2022-12-29T13:39:14;4.60;;;3.28;;
29402;SDS011;16382;59.942;30.472;2022-12-29T13:41:47;5.47;;;2.85;;
29402;SDS011;16382;59.942;30.472;2022-12-29T13:44:20;6.15;;;3.40;;
29402;SDS011;16382;59.942;30.472;2022-12-29T13:46:54;7.80;;;3.38;;
29402;SDS011;16382;59.942;30.472;2022-12-29T13:49:26;5.13;;;3.15;;
29402;SDS011;16382;59.942;30.472;2022-12-29T13:51:57;6.75;;;3.47;;
29402;SDS011;16382;59.942;30.472;2022-12-29T13:54:35;7.65;;;3.00;;
29402;SDS011;16382;59.942;30.472;2022-12-29T13:57:10;4.75;;;2.97;;
29402;SDS011;16382;59.942;30.472;2022-12-29T13:59:49;4.78;;;3.05;;
29402;SDS011;16382;59.942;30.472;2022-12-29T14:02:26;5.75;;;3.13;;
29402;SDS011;16382;59.942;30.472;2022-12-29T14:05:00;3.88;;;2.83;;
29402;SDS011;16382;59.942;30.472;2022-12-29T14:07:35;5.28;;;3.25;;
29402;SDS011;16382;59.942;30.472;2022-12-29T14:10:04;5.70;;;2.97;;
29402;SDS011;16382;59.942;30.472;2022-12-29T14:12:35;6.00;;;3.10;;
29402;SDS011;16382;59.942;30.472;2022-12-29T14:15:13;6.15;;;2.80;;
29402;SDS011;16382;59.942;30.472;2022-12-29T14:18:00;5.38;;;2.40;;
29402;SDS011;16382;59.942;30.472;2022-12-29T14:20:32;4.95;;;2.60;;
29402;SDS011;16382;59.942;30.472;2022-12-29T14:23:01;4.35;;;2.22;;
29402;SDS011;16382;59.942;30.472;2022-12-29T14:28:39;6.47;;;2.30;;
29402;SDS011;16382;59.942;30.472;2022-12-29T14:34:16;5.30;;;2.42;;
29402;SDS011;16382;59.942;30.472;2022-12-29T14:36:56;8.57;;;2.30;;
29402;SDS011;16382;59.942;30.472;2022-12-29T14:39:32;3.20;;;2.15;;
29402;SDS011;16382;59.942;30.472;2022-12-29T14:42:04;6.18;;;2.63;;
29402;SDS011;16382;59.942;30.472;2022-12-29T14:44:45;6.10;;;2.40;;
29402;SDS011;16382;59.942;30.472;2022-12-29T14:47:18;4.85;;;2.40;;
29402;SDS011;16382;59.942;30.472;2022-12-29T14:49:49;8.57;;;2.80;;
29402;SDS011;16382;59.942;30.472;2022-12-29T14:52:18;5.72;;;2.60;;
29402;SDS011;16382;59.942;30.472;2022-12-29T14:54:49;6.82;;;2.03;;
29402;SDS011;16382;59.942;30.472;2022-12-29T14:57:25;6.22;;;3.00;;
29402;SDS011;16382;59.942;30.472;2022-12-29T15:00:05;6.85;;;2.47;;
29402;SDS011;16382;59.942;30.472;2022-12-29T15:02:48;4.38;;;2.42;;
29402;SDS011;16382;59.942;30.472;2022-12-29T15:05:30;8.60;;;2.65;;
29402;SDS011;16382;59.942;30.472;2022-12-29T15:08:03;8.55;;;2.85;;
29402;SDS011;16382;59.942;30.472;2022-12-29T15:10:36;9.20;;;2.75;;
29402;SDS011;16382;59.942;30.472;2022-12-29T15:13:13;7.78;;;3.08;;
29402;SDS011;16382;59.942;30.472;2022-12-29T15:15:44;7.75;;;3.78;;
29402;SDS011;16382;59.942;30.472;2022-12-29T15:18:14;9.55;;;3.80;;
29402;SDS011;16382;59.942;30.472;2022-12-29T15:20:50;5.75;;;3.05;;
29402;SDS011;16382;59.942;30.472;2022-12-29T15:23:21;7.68;;;3.40;;
29402;SDS011;16382;59.942;30.472;2022-12-29T15:25:50;6.70;;;3.55;;
29402;SDS011;16382;59.942;30.472;2022-12-29T15:28:23;10.27;;;3.63;;
29402;SDS011;16382;59.942;30.472;2022-12-29T15:30:52;5.32;;;2.65;;
29402;SDS011;16382;59.942;30.472;2022-12-29T15:33:24;8.18;;;3.28;;
29402;SDS011;16382;59.942;30.472;2022-12-29T15:35:54;10.65;;;4.13;;
29402;SDS011;16382;59.942;30.472;2022-12-29T15:38:24;6.20;;;2.83;;
29402;SDS011;16382;59.942;30.472;2022-12-29T15:40:56;8.38;;;2.95;;
29402;SDS011;16382;59.942;30.472;2022-12-29T15:43:30;6.53;;;2.95;;